Abingdon, VA

2:44 PM EDT on October 23, 2014 (GMT -0400)
Virginia Highlands | Change Station
CLOSE
Current Station
Airport
Location: Abingdon,
Elevation: 2070 ft
Nearby Weather Stations

Elev 2070 ft 36.69 °N, 82.03 °W | Updated 9 minutes ago

Scattered Clouds
Scattered Clouds
54 °F
Feels Like 54 °F
N
0
Wind Variable Wind from North

Today
High -- | Low -- °F
--% Chance of Precip.
Yesterday
High -- | Low -- °F
Precip. -- in
7:42 AM 6:41 PM
Waning Crescent, 0% visible
Pressure 30.12 in
Visibility 10.0 miles
Clouds Scattered Clouds 2900 ft
Dew Point 40 °F
Humidity 58%
Rainfall 0.00 in
Snow Depth Not available.
UV 4 out of 12
Pollen .90 out of 12
Air Quality Not available.
Flu Activity Local Activity
METAR KVJI 231835Z AUTO 00000KT 10SM SCT029 13/04 A3012 RMK AO2 T01250044

More Conditions Fewer Conditions

Pressure 30.12 in
Visibility 10.0 miles
Clouds Scattered Clouds 2900 ft
Dew Point 40 °F
Humidity 58%
Rainfall 0.00 in
Snow Depth Not available.
UV 4 out of 12
Pollen .90 out of 12
Air Quality Not available.
Flu Activity Local Activity
METAR KVJI 231835Z AUTO 00000KT 10SM SCT029 13/04 A3012 RMK AO2 T01250044

More Conditions Fewer Conditions

10-Day Weather Forecast

Almanac

Astronomy

Oct. 23, 2014 Rise Set
Actual Time 7:42 AM EDT 6:41 PM EDT
Civil Twilight 7:16 AM EDT 7:07 PM EDT
Nautical Twilight 6:46 AM EDT 7:37 PM EDT
Astronomical Twilight 6:16 AM EDT 8:07 PM EDT
Moon 7:21 AM EDT 6:42 PM EDT
Length of Visible Light 11h 51m
Length of Day
10h 58m
Tomorrow will be 2m 9s shorter.
Waning Crescent, 0% of the Moon is Illuminated
Today
Waning Crescent
Oct 23
New
Oct 30
First Quarter
Nov 6
Full
Nov 14
Last Quarter

Today's Extremes

State Highs State Lows

Community

WunderPhotos

Upload Photos

1,764,339 photos uploaded!

WunderBlogs® & News

Nearby

Snow Depth

Station Depth Elevation
No new snow has been reported.

Earthquake Activity

City Distance Mag. Time & Date
No recent earthquake activity has been reported nearby.
Minimum magnitude displayed is 2.5.

Coastal Water Temperatures

Place Temperature
No Stations Reporting

Nearby Weather Stations